createdAt,value
2019-01-14T00:00:38.455Z,18.13
2019-01-14T00:01:38.086Z,18.13
2019-01-14T00:02:38.260Z,18.12
2019-01-14T00:03:39.167Z,18.11
2019-01-14T00:04:38.089Z,18.1
2019-01-14T00:05:38.260Z,18.1
2019-01-14T00:06:38.399Z,18.09
2019-01-14T00:07:38.732Z,18.09
2019-01-14T00:08:38.222Z,18.09
2019-01-14T00:09:38.663Z,18.09
2019-01-14T00:10:39.935Z,18.07
2019-01-14T00:11:38.109Z,18.07
2019-01-14T00:12:38.773Z,18.06
2019-01-14T00:13:38.087Z,18.04
2019-01-14T00:14:38.317Z,18.04
2019-01-14T00:15:38.490Z,18.04
2019-01-14T00:16:38.377Z,18.03
2019-01-14T00:17:38.156Z,18.04
2019-01-14T00:18:38.324Z,18.04
2019-01-14T00:19:38.408Z,18.03
2019-01-14T00:20:38.121Z,18.02
2019-01-14T00:21:38.260Z,18.02
2019-01-14T00:22:38.094Z,18.02
2019-01-14T00:23:38.195Z,18.02
2019-01-14T00:24:38.303Z,18.01
2019-01-14T00:25:38.100Z,18.01
2019-01-14T00:26:38.245Z,17.99
2019-01-14T00:27:38.254Z,18
2019-01-14T00:28:38.160Z,17.99
2019-01-14T00:29:38.267Z,17.99
2019-01-14T00:30:38.054Z,17.98
2019-01-14T00:31:38.403Z,17.98
2019-01-14T00:32:38.315Z,17.97
2019-01-14T00:33:38.253Z,17.96
2019-01-14T00:34:38.410Z,17.96
2019-01-14T00:35:38.329Z,17.93
2019-01-14T00:36:38.118Z,17.94
2019-01-14T00:37:38.247Z,17.93
2019-01-14T00:38:38.769Z,17.93
2019-01-14T00:39:38.128Z,17.93
2019-01-14T00:40:38.437Z,17.92
2019-01-14T00:41:38.058Z,17.92
2019-01-14T00:42:38.148Z,17.92
2019-01-14T00:43:38.156Z,17.92
2019-01-14T00:44:38.274Z,17.92
2019-01-14T00:45:38.116Z,17.91
2019-01-14T00:46:38.880Z,17.9
2019-01-14T00:47:37.973Z,17.9
2019-01-14T00:48:38.076Z,17.9
2019-01-14T00:49:38.254Z,17.9
2019-01-14T00:50:38.071Z,17.88
2019-01-14T00:51:38.163Z,17.86
2019-01-14T00:52:38.552Z,17.88
2019-01-14T00:53:38.127Z,17.87
2019-01-14T00:54:38.370Z,17.87
2019-01-14T00:55:38.071Z,17.86
2019-01-14T00:56:38.236Z,17.86
2019-01-14T00:57:38.213Z,17.85
2019-01-14T00:58:38.347Z,17.84
2019-01-14T00:59:38.431Z,17.85
2019-01-14T01:00:38.767Z,17.86
2019-01-14T01:01:38.337Z,17.85
2019-01-14T01:02:37.990Z,17.85
2019-01-14T01:03:38.126Z,17.84
2019-01-14T01:04:38.178Z,17.83
2019-01-14T01:05:39.774Z,17.84
2019-01-14T01:06:38.527Z,17.83
2019-01-14T01:07:38.073Z,17.82
2019-01-14T01:08:39.490Z,17.81
2019-01-14T01:09:38.163Z,17.8
2019-01-14T01:10:38.226Z,17.8
2019-01-14T01:11:38.030Z,17.8
2019-01-14T01:12:38.253Z,17.79
2019-01-14T01:13:38.793Z,17.79
2019-01-14T01:14:38.034Z,17.79
2019-01-14T01:15:38.154Z,17.79
2019-01-14T01:16:38.301Z,17.79
2019-01-14T01:17:38.170Z,17.79
2019-01-14T01:18:38.276Z,17.79
2019-01-14T01:19:38.747Z,17.78
2019-01-14T01:20:38.117Z,17.78
2019-01-14T01:21:38.476Z,17.78
2019-01-14T01:22:38.085Z,17.78
2019-01-14T01:23:38.359Z,17.77
2019-01-14T01:24:38.322Z,17.76
2019-01-14T01:25:38.078Z,17.75
2019-01-14T01:26:38.334Z,17.75
2019-01-14T01:27:38.974Z,17.74
2019-01-14T01:28:38.978Z,17.73
2019-01-14T01:29:38.726Z,17.74
2019-01-14T01:30:38.598Z,17.73
2019-01-14T01:31:38.134Z,17.73
2019-01-14T01:32:38.885Z,17.73
2019-01-14T01:33:38.389Z,17.73
2019-01-14T01:34:38.411Z,17.73
2019-01-14T01:35:38.218Z,17.72
2019-01-14T01:36:37.921Z,17.72
2019-01-14T01:37:38.246Z,17.72
2019-01-14T01:38:41.784Z,17.72
2019-01-14T01:39:38.037Z,17.7
2019-01-14T01:40:38.262Z,17.71
2019-01-14T01:41:38.215Z,17.7
2019-01-14T01:42:38.130Z,17.69
2019-01-14T01:43:38.550Z,17.69
2019-01-14T01:44:38.444Z,17.68
2019-01-14T01:45:38.237Z,17.69
2019-01-14T01:46:38.216Z,17.67
2019-01-14T01:47:38.309Z,17.67
2019-01-14T01:48:38.212Z,17.67
2019-01-14T01:49:38.236Z,17.68
2019-01-14T01:50:38.147Z,17.67
2019-01-14T01:51:38.201Z,17.67
2019-01-14T01:52:38.169Z,17.66
2019-01-14T01:53:38.273Z,17.65
2019-01-14T01:54:38.246Z,17.65
2019-01-14T01:55:38.466Z,17.65
2019-01-14T01:56:38.133Z,17.65
2019-01-14T01:57:37.997Z,17.65
2019-01-14T01:58:38.113Z,17.64
2019-01-14T01:59:38.151Z,17.63
2019-01-14T02:00:38.019Z,17.61
2019-01-14T02:01:38.114Z,17.62
2019-01-14T02:02:38.317Z,17.62
2019-01-14T02:03:38.338Z,17.63
2019-01-14T02:04:39.011Z,17.61
2019-01-14T02:05:38.048Z,17.61
2019-01-14T02:06:39.606Z,17.6
2019-01-14T02:07:38.224Z,17.61
2019-01-14T02:08:38.218Z,17.6
2019-01-14T02:09:38.081Z,17.61
2019-01-14T02:10:38.188Z,17.6
2019-01-14T02:11:38.033Z,17.6
2019-01-14T02:12:38.090Z,17.59
2019-01-14T02:13:38.211Z,17.57
2019-01-14T02:14:38.607Z,17.57
2019-01-14T02:15:38.162Z,17.57
2019-01-14T02:16:38.386Z,17.56
2019-01-14T02:17:38.528Z,17.57
2019-01-14T02:18:38.200Z,17.56
2019-01-14T02:19:38.420Z,17.57
2019-01-14T02:20:38.070Z,17.57
2019-01-14T02:21:38.086Z,17.56
2019-01-14T02:22:37.898Z,17.56
2019-01-14T02:23:37.976Z,17.55
2019-01-14T02:24:38.216Z,17.55
2019-01-14T02:25:37.907Z,17.54
2019-01-14T02:26:38.291Z,17.54
2019-01-14T02:27:38.306Z,17.53
2019-01-14T02:28:38.090Z,17.54
2019-01-14T02:29:38.067Z,17.54
2019-01-14T02:30:38.417Z,17.53
2019-01-14T02:31:37.913Z,17.52
2019-01-14T02:32:38.163Z,17.53
2019-01-14T02:33:38.136Z,17.52
2019-01-14T02:34:38.092Z,17.53
2019-01-14T02:35:38.093Z,17.52
2019-01-14T02:36:38.353Z,17.52
2019-01-14T02:37:38.307Z,17.52
2019-01-14T02:38:38.448Z,17.52
2019-01-14T02:39:38.399Z,17.53
2019-01-14T02:40:38.144Z,17.51
2019-01-14T02:41:38.379Z,17.5
2019-01-14T02:42:38.234Z,17.49
2019-01-14T02:43:38.324Z,17.49
2019-01-14T02:44:38.334Z,17.5
2019-01-14T02:45:38.284Z,17.49
2019-01-14T02:46:38.188Z,17.48
2019-01-14T02:47:39.990Z,17.48
2019-01-14T02:48:38.835Z,17.48
2019-01-14T02:49:38.275Z,17.48
2019-01-14T02:50:38.695Z,17.48
2019-01-14T02:51:38.106Z,17.48
2019-01-14T02:52:40.210Z,17.47
2019-01-14T02:53:38.418Z,17.47
2019-01-14T02:54:38.068Z,17.48
2019-01-14T02:55:38.201Z,17.46
2019-01-14T02:56:38.189Z,17.46
2019-01-14T02:57:38.101Z,17.47
2019-01-14T02:58:38.199Z,17.47
2019-01-14T02:59:38.316Z,17.46
2019-01-14T03:00:38.085Z,17.46
2019-01-14T03:01:38.440Z,17.45
2019-01-14T03:02:38.948Z,17.44
2019-01-14T03:03:38.341Z,17.45
2019-01-14T03:04:38.050Z,17.45
2019-01-14T03:05:37.936Z,17.44
2019-01-14T03:06:38.327Z,17.43
2019-01-14T03:07:38.186Z,17.43
2019-01-14T03:08:37.962Z,17.43
2019-01-14T03:09:38.592Z,17.42
2019-01-14T03:10:38.211Z,17.42
2019-01-14T03:11:38.037Z,17.43
2019-01-14T03:12:38.040Z,17.42
2019-01-14T03:13:37.903Z,17.42
2019-01-14T03:14:38.097Z,17.42
2019-01-14T03:15:38.191Z,17.42
2019-01-14T03:16:37.972Z,17.42
2019-01-14T03:17:38.200Z,17.42
2019-01-14T03:18:39.154Z,17.4
2019-01-14T03:19:37.998Z,17.41
2019-01-14T03:20:38.158Z,17.4
2019-01-14T03:21:38.455Z,17.4
2019-01-14T03:22:38.070Z,17.39
2019-01-14T03:23:38.051Z,17.38
2019-01-14T03:24:38.095Z,17.38
2019-01-14T03:25:37.990Z,17.39
2019-01-14T03:26:38.110Z,17.39
2019-01-14T03:27:38.150Z,17.37
2019-01-14T03:28:38.153Z,17.37
2019-01-14T03:29:38.215Z,17.37
2019-01-14T03:30:38.406Z,17.39
2019-01-14T03:31:38.364Z,17.37
2019-01-14T03:32:38.268Z,17.37
2019-01-14T03:33:37.901Z,17.36
2019-01-14T03:34:38.358Z,17.37
2019-01-14T03:35:38.389Z,17.37
2019-01-14T03:36:37.918Z,17.36
2019-01-14T03:37:38.384Z,17.36
2019-01-14T03:38:38.192Z,17.36
2019-01-14T03:39:38.311Z,17.36
2019-01-14T03:40:38.135Z,17.35
2019-01-14T03:41:40.001Z,17.35
2019-01-14T03:42:38.516Z,17.34
2019-01-14T03:43:38.545Z,17.36
2019-01-14T03:44:38.148Z,17.35
2019-01-14T03:45:38.538Z,17.36
2019-01-14T03:46:38.432Z,17.35
2019-01-14T03:47:38.199Z,17.35
2019-01-14T03:48:38.157Z,17.34
2019-01-14T03:49:38.233Z,17.34
2019-01-14T03:50:38.277Z,17.34
2019-01-14T03:51:38.480Z,17.33
2019-01-14T03:52:38.155Z,17.33
2019-01-14T03:53:38.214Z,17.33
2019-01-14T03:54:38.102Z,17.33
2019-01-14T03:55:38.370Z,17.32
2019-01-14T03:56:38.124Z,17.31
2019-01-14T03:57:37.987Z,17.32
2019-01-14T03:58:38.145Z,17.31
2019-01-14T03:59:38.097Z,17.32
2019-01-14T04:00:38.085Z,17.31
2019-01-14T04:01:38.386Z,17.3
2019-01-14T04:02:38.058Z,17.29
2019-01-14T04:03:37.976Z,17.3
2019-01-14T04:04:38.211Z,17.31
2019-01-14T04:05:38.186Z,17.3
2019-01-14T04:06:38.058Z,17.29
2019-01-14T04:07:38.137Z,17.29
2019-01-14T04:08:38.169Z,17.3
2019-01-14T04:09:38.310Z,17.3
2019-01-14T04:10:39.116Z,17.31
2019-01-14T04:11:38.033Z,17.3
2019-01-14T04:12:38.465Z,17.29
2019-01-14T04:13:38.392Z,17.29
2019-01-14T04:14:38.210Z,17.29
2019-01-14T04:15:38.054Z,17.29
2019-01-14T04:16:38.557Z,17.3
2019-01-14T04:17:38.077Z,17.29
2019-01-14T04:18:38.210Z,17.28
2019-01-14T04:19:38.180Z,17.27
2019-01-14T04:20:39.070Z,17.29
2019-01-14T04:21:38.157Z,17.29
2019-01-14T04:22:38.605Z,17.28
2019-01-14T04:23:38.391Z,17.28
2019-01-14T04:24:38.995Z,17.26
2019-01-14T04:25:38.562Z,17.25
2019-01-14T04:26:38.652Z,17.25
2019-01-14T04:27:38.442Z,17.25
2019-01-14T04:28:38.255Z,17.25
2019-01-14T04:29:38.189Z,17.24
2019-01-14T04:30:38.043Z,17.23
2019-01-14T04:31:38.269Z,17.25
2019-01-14T04:32:38.360Z,17.25
2019-01-14T04:33:38.708Z,17.24
2019-01-14T04:34:37.937Z,17.23
2019-01-14T04:35:38.384Z,17.23
2019-01-14T04:36:38.406Z,17.23
2019-01-14T04:37:38.027Z,17.23
2019-01-14T04:38:38.316Z,17.23
2019-01-14T04:39:38.308Z,17.23
2019-01-14T04:40:38.283Z,17.23
2019-01-14T04:41:38.264Z,17.23
2019-01-14T04:42:38.206Z,17.23
2019-01-14T04:43:37.956Z,17.23
2019-01-14T04:44:38.147Z,17.24
2019-01-14T04:45:38.112Z,17.24
2019-01-14T04:46:38.148Z,17.25
2019-01-14T04:47:38.511Z,17.25
2019-01-14T04:48:38.019Z,17.26
2019-01-14T04:49:38.105Z,17.27
2019-01-14T04:50:38.186Z,17.28
2019-01-14T04:51:38.488Z,17.29
2019-01-14T04:52:38.278Z,17.3
2019-01-14T04:53:39.989Z,17.31
2019-01-14T04:54:38.241Z,17.32
2019-01-14T04:55:38.078Z,17.34
2019-01-14T04:56:38.436Z,17.36
2019-01-14T04:57:37.984Z,17.36
2019-01-14T04:58:38.518Z,17.37
2019-01-14T04:59:38.170Z,17.39
2019-01-14T05:00:39.179Z,17.41
2019-01-14T05:01:38.096Z,17.42
2019-01-14T05:02:39.785Z,17.44
2019-01-14T05:03:37.988Z,17.47
2019-01-14T05:04:39.196Z,17.48
2019-01-14T05:05:38.335Z,17.49
2019-01-14T05:06:38.508Z,17.5
2019-01-14T05:07:38.834Z,17.54
2019-01-14T05:08:38.573Z,17.55
2019-01-14T05:09:38.317Z,17.57
2019-01-14T05:10:38.387Z,17.6
2019-01-14T05:11:38.022Z,17.61
2019-01-14T05:12:38.371Z,17.64
2019-01-14T05:13:38.221Z,17.65
2019-01-14T05:14:38.253Z,17.67
2019-01-14T05:15:38.095Z,17.69
2019-01-14T05:16:40.009Z,17.71
2019-01-14T05:17:38.511Z,17.73
2019-01-14T05:18:39.122Z,17.74
2019-01-14T05:19:38.243Z,17.76
2019-01-14T05:20:37.986Z,17.79
2019-01-14T05:21:38.295Z,17.81
2019-01-14T05:22:38.056Z,17.82
2019-01-14T05:23:37.948Z,17.85
2019-01-14T05:24:38.342Z,17.85
2019-01-14T05:25:38.339Z,17.87
2019-01-14T05:26:37.984Z,17.88
2019-01-14T05:27:38.559Z,17.9
2019-01-14T05:28:38.077Z,17.92
2019-01-14T05:29:38.018Z,17.94
2019-01-14T05:30:38.047Z,17.94
2019-01-14T05:31:38.083Z,17.97
2019-01-14T05:32:38.399Z,17.98
2019-01-14T05:33:38.306Z,17.98
2019-01-14T05:34:37.971Z,18
2019-01-14T05:35:38.090Z,18.03
2019-01-14T05:36:38.147Z,18.04
2019-01-14T05:37:38.461Z,18.04
2019-01-14T05:38:37.957Z,18.05
2019-01-14T05:39:38.773Z,18.07
2019-01-14T05:40:38.466Z,18.09
2019-01-14T05:41:38.063Z,18.1
2019-01-14T05:42:38.344Z,18.11
2019-01-14T05:43:38.258Z,18.11
2019-01-14T05:44:38.094Z,18.13
2019-01-14T05:45:38.564Z,18.14
2019-01-14T05:46:37.923Z,18.15
2019-01-14T05:47:38.275Z,18.17
2019-01-14T05:48:38.472Z,18.18
2019-01-14T05:49:37.836Z,18.21
2019-01-14T05:50:38.302Z,18.22
2019-01-14T05:51:38.336Z,18.22
2019-01-14T05:52:38.189Z,18.23
2019-01-14T05:53:38.085Z,18.25
2019-01-14T05:54:38.029Z,18.25
2019-01-14T05:55:38.071Z,18.27
2019-01-14T05:56:38.120Z,18.29
2019-01-14T05:57:37.863Z,18.29
2019-01-14T05:58:38.030Z,18.31
2019-01-14T05:59:38.147Z,18.31
2019-01-14T06:00:37.997Z,18.33
2019-01-14T06:01:37.967Z,18.33
2019-01-14T06:02:38.517Z,18.35
2019-01-14T06:03:38.025Z,18.36
2019-01-14T06:04:38.179Z,18.36
2019-01-14T06:05:37.794Z,18.38
2019-01-14T06:06:38.282Z,18.42
2019-01-14T06:07:45.412Z,18.44
2019-01-14T06:08:38.188Z,18.46
2019-01-14T06:09:37.864Z,18.46
2019-01-14T06:10:38.115Z,18.48
2019-01-14T06:11:38.371Z,18.49
2019-01-14T06:12:39.244Z,18.5
2019-01-14T06:13:38.300Z,18.52
2019-01-14T06:14:38.348Z,18.54
2019-01-14T06:15:38.018Z,18.55
2019-01-14T06:16:38.180Z,18.55
2019-01-14T06:17:38.247Z,18.57
2019-01-14T06:18:38.069Z,18.59
2019-01-14T06:19:38.045Z,18.6
2019-01-14T06:20:38.374Z,18.61
2019-01-14T06:21:38.063Z,18.64
2019-01-14T06:22:38.672Z,18.65
2019-01-14T06:23:38.011Z,18.66
2019-01-14T06:24:38.254Z,18.66
2019-01-14T06:25:38.427Z,18.66
2019-01-14T06:26:38.457Z,18.68
2019-01-14T06:27:37.949Z,18.69
2019-01-14T06:28:38.449Z,18.71
2019-01-14T06:29:38.027Z,18.71
2019-01-14T06:30:38.915Z,18.72
2019-01-14T06:31:38.138Z,18.72
2019-01-14T06:32:38.014Z,18.74
2019-01-14T06:33:38.045Z,18.75
2019-01-14T06:34:39.087Z,18.76
2019-01-14T06:35:38.413Z,18.77
2019-01-14T06:36:38.217Z,18.8
2019-01-14T06:37:37.938Z,18.82
2019-01-14T06:38:37.915Z,18.8
2019-01-14T06:39:38.488Z,18.79
2019-01-14T06:40:37.999Z,18.79
2019-01-14T06:41:38.305Z,18.78
2019-01-14T06:42:38.615Z,18.78
2019-01-14T06:43:37.965Z,18.78
2019-01-14T06:44:38.403Z,18.79
2019-01-14T06:45:38.031Z,18.78
2019-01-14T06:46:38.074Z,18.78
2019-01-14T06:47:38.106Z,18.8
2019-01-14T06:48:40.049Z,18.79
2019-01-14T06:49:38.409Z,18.8
2019-01-14T06:50:38.400Z,18.8
2019-01-14T06:51:38.022Z,18.81
2019-01-14T06:52:37.941Z,18.81
2019-01-14T06:53:37.975Z,18.82
2019-01-14T06:54:37.892Z,18.83
2019-01-14T06:55:38.051Z,18.82
2019-01-14T06:56:38.138Z,18.83
2019-01-14T06:57:38.020Z,18.83
2019-01-14T06:58:38.925Z,18.84
2019-01-14T06:59:38.398Z,18.83
2019-01-14T07:00:38.430Z,18.84
2019-01-14T07:01:38.070Z,18.83
2019-01-14T07:02:38.383Z,18.84
2019-01-14T07:03:38.143Z,18.84
2019-01-14T07:04:38.123Z,18.84
2019-01-14T07:05:38.088Z,18.84
2019-01-14T07:06:38.451Z,18.84
2019-01-14T07:07:38.109Z,18.85
2019-01-14T07:08:38.425Z,18.85
2019-01-14T07:09:38.403Z,18.86
2019-01-14T07:10:38.144Z,18.86
2019-01-14T07:11:39.027Z,18.86
2019-01-14T07:12:37.901Z,18.87
2019-01-14T07:13:38.722Z,18.87
2019-01-14T07:14:37.859Z,18.87
2019-01-14T07:15:38.034Z,18.88
2019-01-14T07:16:38.122Z,18.88
2019-01-14T07:17:38.348Z,18.89
2019-01-14T07:18:38.082Z,18.89
2019-01-14T07:19:38.438Z,18.89
2019-01-14T07:20:38.231Z,18.9
2019-01-14T07:21:37.921Z,18.91
2019-01-14T07:22:38.256Z,18.9
2019-01-14T07:23:38.687Z,18.91
2019-01-14T07:24:38.217Z,18.91
2019-01-14T07:25:38.148Z,18.91
2019-01-14T07:26:37.957Z,18.91
2019-01-14T07:27:38.040Z,18.94
2019-01-14T07:28:38.159Z,18.94
2019-01-14T07:29:38.278Z,18.94
2019-01-14T07:30:37.968Z,18.95
2019-01-14T07:31:37.902Z,18.95
2019-01-14T07:32:38.503Z,18.95
2019-01-14T07:33:37.976Z,18.97
2019-01-14T07:34:38.357Z,18.97
2019-01-14T07:35:37.958Z,18.97
2019-01-14T07:36:38.457Z,18.97
2019-01-14T07:37:38.273Z,18.98
2019-01-14T07:38:38.013Z,18.99
2019-01-14T07:39:38.108Z,19
2019-01-14T07:40:38.016Z,19
2019-01-14T07:41:37.888Z,19.01
2019-01-14T07:42:38.214Z,19.01
2019-01-14T07:43:37.824Z,19.01
2019-01-14T07:44:38.035Z,19.03
2019-01-14T07:45:38.218Z,19.03
2019-01-14T07:46:37.841Z,19.03
2019-01-14T07:47:38.049Z,19.04
2019-01-14T07:48:38.199Z,19.03
2019-01-14T07:49:38.212Z,19.05
2019-01-14T07:50:37.950Z,19.05
2019-01-14T07:51:39.306Z,19.05
2019-01-14T07:52:38.125Z,19.05
2019-01-14T07:53:38.038Z,19.05
2019-01-14T07:54:38.101Z,19.06
2019-01-14T07:55:38.224Z,19.07
2019-01-14T07:56:38.089Z,19.07
2019-01-14T07:57:38.258Z,19.09
2019-01-14T07:58:38.244Z,19.09
2019-01-14T07:59:38.375Z,19.09
2019-01-14T08:00:38.175Z,19.09
2019-01-14T08:01:38.267Z,19.09
2019-01-14T08:02:38.458Z,19.12
2019-01-14T08:03:38.213Z,19.11
2019-01-14T08:04:38.139Z,19.12
2019-01-14T08:05:38.796Z,19.13
2019-01-14T08:06:38.161Z,19.1
2019-01-14T08:07:38.190Z,19.09
2019-01-14T08:08:37.975Z,19.2
2019-01-14T08:09:38.358Z,19.25
2019-01-14T08:10:38.001Z,19.23
2019-01-14T08:11:38.899Z,19.18
2019-01-14T08:12:39.788Z,19.18
2019-01-14T08:13:38.495Z,19.24
2019-01-14T08:14:38.083Z,19.24
2019-01-14T08:15:38.076Z,19.15
2019-01-14T08:16:38.292Z,18.82
2019-01-14T08:17:38.093Z,18.54
2019-01-14T08:18:38.229Z,18.24
2019-01-14T08:19:38.643Z,18.05
2019-01-14T08:20:38.007Z,17.93
2019-01-14T08:21:37.963Z,17.79
2019-01-14T08:22:37.964Z,17.68
2019-01-14T08:23:38.627Z,17.55
2019-01-14T08:24:38.005Z,17.42
2019-01-14T08:25:38.209Z,17.53
2019-01-14T08:26:38.033Z,17.65
2019-01-14T08:27:38.331Z,17.75
2019-01-14T08:28:38.135Z,17.82
2019-01-14T08:29:37.883Z,17.9
2019-01-14T08:30:39.828Z,17.98
2019-01-14T08:31:38.849Z,18.04
2019-01-14T08:32:38.216Z,18.09
2019-01-14T08:33:38.498Z,18.13
2019-01-14T08:34:38.312Z,18.17
2019-01-14T08:35:38.424Z,18.2
2019-01-14T08:36:37.876Z,18.24
2019-01-14T08:37:38.322Z,18.27
2019-01-14T08:38:37.768Z,18.3
2019-01-14T08:39:38.121Z,18.32
2019-01-14T08:40:38.563Z,18.35
2019-01-14T08:41:38.105Z,18.35
2019-01-14T08:42:38.140Z,18.37
2019-01-14T08:43:37.831Z,18.39
2019-01-14T08:44:37.946Z,18.4
2019-01-14T08:45:37.992Z,18.41
2019-01-14T08:46:37.997Z,18.42
2019-01-14T08:47:38.032Z,18.42
2019-01-14T08:48:38.250Z,18.43
2019-01-14T08:49:38.054Z,18.43
2019-01-14T08:50:38.365Z,18.44
2019-01-14T08:51:38.033Z,18.45
2019-01-14T08:52:38.546Z,18.45
2019-01-14T08:53:37.960Z,18.45
2019-01-14T08:54:37.764Z,18.45
2019-01-14T08:55:37.866Z,18.46
2019-01-14T08:56:39.060Z,18.45
2019-01-14T08:57:38.173Z,18.45
2019-01-14T08:58:38.124Z,18.44
2019-01-14T08:59:38.141Z,18.45
2019-01-14T09:00:37.914Z,18.44
2019-01-14T09:01:39.756Z,18.43
2019-01-14T09:02:38.747Z,18.43
2019-01-14T09:03:38.064Z,18.43
2019-01-14T09:04:38.311Z,18.42
2019-01-14T09:05:38.381Z,18.42
2019-01-14T09:06:37.976Z,18.42
2019-01-14T09:07:38.196Z,18.42
2019-01-14T09:08:38.438Z,18.44
2019-01-14T09:09:38.145Z,18.23
2019-01-14T09:10:38.639Z,18.1
2019-01-14T09:11:39.892Z,18.05
2019-01-14T09:12:37.936Z,18.03
2019-01-14T09:13:38.082Z,17.97
2019-01-14T09:14:37.900Z,17.96
2019-01-14T09:15:38.267Z,17.92
2019-01-14T09:16:38.517Z,17.88
2019-01-14T09:17:37.981Z,17.86
2019-01-14T09:18:38.056Z,17.83
2019-01-14T09:19:38.383Z,17.82
2019-01-14T09:20:37.934Z,17.79
2019-01-14T09:21:38.709Z,17.77
2019-01-14T09:22:38.390Z,17.78
2019-01-14T09:23:38.037Z,17.73
2019-01-14T09:24:37.942Z,17.71
2019-01-14T09:25:39.880Z,17.68
2019-01-14T09:26:38.068Z,17.67
2019-01-14T09:27:38.035Z,17.62
2019-01-14T09:28:38.188Z,17.62
2019-01-14T09:29:38.321Z,17.6
2019-01-14T09:30:37.970Z,17.57
2019-01-14T09:31:38.057Z,17.54
2019-01-14T09:32:38.197Z,17.54
2019-01-14T09:33:38.464Z,17.51
2019-01-14T09:34:37.909Z,17.53
2019-01-14T09:35:38.104Z,17.5
2019-01-14T09:36:38.626Z,17.48
2019-01-14T09:37:37.912Z,17.52
2019-01-14T09:38:37.885Z,17.6
2019-01-14T09:39:38.064Z,17.68
2019-01-14T09:40:38.092Z,17.76
2019-01-14T09:41:38.073Z,17.84
2019-01-14T09:42:38.166Z,17.89
2019-01-14T09:43:38.104Z,17.94
2019-01-14T09:44:37.951Z,17.9
2019-01-14T09:45:38.523Z,17.71
2019-01-14T09:46:38.139Z,17.62
2019-01-14T09:47:38.233Z,17.56
2019-01-14T09:48:37.989Z,17.48
2019-01-14T09:49:37.842Z,17.45
2019-01-14T09:50:38.022Z,17.53
2019-01-14T09:51:38.055Z,17.6
2019-01-14T09:52:37.836Z,17.66
2019-01-14T09:53:38.007Z,17.69
2019-01-14T09:54:38.371Z,17.73
2019-01-14T09:55:38.289Z,17.75
2019-01-14T09:56:38.011Z,17.75
2019-01-14T09:57:38.068Z,17.69
2019-01-14T09:58:39.015Z,17.58
2019-01-14T09:59:37.883Z,17.51
2019-01-14T10:00:37.997Z,17.41
2019-01-14T10:01:38.318Z,17.42
2019-01-14T10:02:39.648Z,17.5
2019-01-14T10:03:38.123Z,17.54
2019-01-14T10:04:37.947Z,17.56
2019-01-14T10:05:38.346Z,17.61
2019-01-14T10:06:38.230Z,17.64
2019-01-14T10:07:38.721Z,17.67
2019-01-14T10:08:43.571Z,17.69
2019-01-14T10:09:37.844Z,17.73
2019-01-14T10:10:38.044Z,17.75
2019-01-14T10:11:38.135Z,17.78
2019-01-14T10:12:38.123Z,17.78
2019-01-14T10:13:38.123Z,17.79
2019-01-14T10:14:38.070Z,17.8
2019-01-14T10:15:38.257Z,17.82
2019-01-14T10:16:38.112Z,17.82
2019-01-14T10:17:38.216Z,17.84
2019-01-14T10:18:37.955Z,17.85
2019-01-14T10:19:38.045Z,17.86
2019-01-14T10:20:38.370Z,17.86
2019-01-14T10:21:38.237Z,17.86
2019-01-14T10:22:38.061Z,17.88
2019-01-14T10:23:37.869Z,17.88
2019-01-14T10:24:38.151Z,17.89
2019-01-14T10:25:38.126Z,17.89
2019-01-14T10:26:37.901Z,17.9
2019-01-14T10:27:37.811Z,17.9
2019-01-14T10:28:38.012Z,17.92
2019-01-14T10:29:38.191Z,17.92
2019-01-14T10:30:38.005Z,17.92
2019-01-14T10:31:38.024Z,17.92
2019-01-14T10:32:38.027Z,17.93
2019-01-14T10:33:38.627Z,17.93
2019-01-14T10:34:37.930Z,17.94
2019-01-14T10:35:38.083Z,17.94
2019-01-14T10:36:37.827Z,17.95
2019-01-14T10:37:38.312Z,17.98
2019-01-14T10:38:38.104Z,17.86
2019-01-14T10:39:38.296Z,17.73
2019-01-14T10:40:38.333Z,17.65
2019-01-14T10:41:38.250Z,17.58
2019-01-14T10:42:38.037Z,17.48
2019-01-14T10:43:37.752Z,17.42
2019-01-14T10:44:37.974Z,17.48
2019-01-14T10:45:39.884Z,17.54
2019-01-14T10:46:37.935Z,17.61
2019-01-14T10:47:38.360Z,17.63
2019-01-14T10:48:38.328Z,17.66
2019-01-14T10:49:38.556Z,17.69
2019-01-14T10:50:37.952Z,17.72
2019-01-14T10:51:38.196Z,17.73
2019-01-14T10:52:38.242Z,17.73
2019-01-14T10:53:38.109Z,17.76
2019-01-14T10:54:38.135Z,17.77
2019-01-14T10:55:38.883Z,17.78
2019-01-14T10:56:37.988Z,17.78
2019-01-14T10:57:38.323Z,17.79
2019-01-14T10:58:38.563Z,17.79
2019-01-14T10:59:38.110Z,17.8
2019-01-14T11:00:38.199Z,17.81
2019-01-14T11:01:38.215Z,17.83
2019-01-14T11:02:38.194Z,17.83
2019-01-14T11:03:38.097Z,17.84
2019-01-14T11:04:38.284Z,17.84
2019-01-14T11:05:38.186Z,17.86
2019-01-14T11:06:37.884Z,17.85
2019-01-14T11:07:38.027Z,17.87
2019-01-14T11:08:38.691Z,17.86
2019-01-14T11:09:37.976Z,17.86
2019-01-14T11:10:37.996Z,17.86
2019-01-14T11:11:37.954Z,17.86
2019-01-14T11:12:38.123Z,17.87
2019-01-14T11:13:37.884Z,17.89
2019-01-14T11:14:38.045Z,17.89
2019-01-14T11:15:37.981Z,17.89
2019-01-14T11:16:37.869Z,17.9
2019-01-14T11:17:38.112Z,17.91
2019-01-14T11:18:37.863Z,17.9
2019-01-14T11:19:38.008Z,17.91
2019-01-14T11:20:37.830Z,17.9
2019-01-14T11:21:37.935Z,17.89
2019-01-14T11:22:37.991Z,17.86
2019-01-14T11:23:38.101Z,17.86
2019-01-14T11:24:37.865Z,17.88
2019-01-14T11:25:37.888Z,17.9
2019-01-14T11:26:37.735Z,17.92
2019-01-14T11:27:37.838Z,17.94
2019-01-14T11:28:37.994Z,17.93
2019-01-14T11:29:37.922Z,17.97
2019-01-14T11:30:37.882Z,17.98
2019-01-14T11:31:39.770Z,18.02
2019-01-14T11:32:37.721Z,18.04
2019-01-14T11:33:38.946Z,18.05
2019-01-14T11:34:37.922Z,18.07
2019-01-14T11:35:37.906Z,18.1
2019-01-14T11:36:38.113Z,18.12
2019-01-14T11:37:38.189Z,18.13
2019-01-14T11:38:37.887Z,18.17
2019-01-14T11:39:37.946Z,18.18
2019-01-14T11:40:37.962Z,18.2
2019-01-14T11:41:37.801Z,18.23
2019-01-14T11:42:38.222Z,18.24
2019-01-14T11:43:37.919Z,18.28
2019-01-14T11:44:37.822Z,18.31
2019-01-14T11:45:38.537Z,18.34
2019-01-14T11:46:37.903Z,18.35
2019-01-14T11:47:37.746Z,18.36
2019-01-14T11:48:38.085Z,18.39
2019-01-14T11:49:37.776Z,18.4
2019-01-14T11:50:37.870Z,18.42
2019-01-14T11:51:38.062Z,18.43
2019-01-14T11:52:38.035Z,18.46
2019-01-14T11:53:38.035Z,18.48
2019-01-14T11:54:38.168Z,18.49
2019-01-14T11:55:37.858Z,18.52
2019-01-14T11:56:38.054Z,18.53
2019-01-14T11:57:38.065Z,18.55
2019-01-14T11:58:37.910Z,18.58
2019-01-14T11:59:38.305Z,18.59
2019-01-14T12:00:38.052Z,18.59
2019-01-14T12:01:37.906Z,18.6
2019-01-14T12:02:40.172Z,18.61
2019-01-14T12:03:38.111Z,18.61
2019-01-14T12:04:38.658Z,18.63
2019-01-14T12:05:38.236Z,18.64
2019-01-14T12:06:38.535Z,18.65
2019-01-14T12:07:38.063Z,18.66
2019-01-14T12:08:37.922Z,18.68
2019-01-14T12:09:37.763Z,18.69
2019-01-14T12:10:38.207Z,18.7
2019-01-14T12:11:37.956Z,18.71
2019-01-14T12:12:39.700Z,18.73
2019-01-14T12:13:38.354Z,18.74
2019-01-14T12:14:37.884Z,18.76
2019-01-14T12:15:38.287Z,18.77
2019-01-14T12:16:38.423Z,18.78
2019-01-14T12:17:37.998Z,18.79
2019-01-14T12:18:37.918Z,18.8
2019-01-14T12:19:37.931Z,18.81
2019-01-14T12:20:38.614Z,18.82
2019-01-14T12:21:37.856Z,18.84
2019-01-14T12:22:39.492Z,18.84
2019-01-14T12:23:38.008Z,18.84
2019-01-14T12:24:37.956Z,18.85
2019-01-14T12:25:38.177Z,18.86
2019-01-14T12:26:37.859Z,18.88
2019-01-14T12:27:37.986Z,18.9
2019-01-14T12:28:38.390Z,18.9
2019-01-14T12:29:38.161Z,18.9
2019-01-14T12:30:37.949Z,18.91
2019-01-14T12:31:38.352Z,18.92
2019-01-14T12:32:37.901Z,18.93
2019-01-14T12:33:37.859Z,18.97
2019-01-14T12:34:38.188Z,18.97
2019-01-14T12:35:38.075Z,18.97
2019-01-14T12:36:37.980Z,18.98
2019-01-14T12:37:38.212Z,18.99
2019-01-14T12:38:38.344Z,19.01
2019-01-14T12:39:38.303Z,19.02
2019-01-14T12:40:37.814Z,19.02
2019-01-14T12:41:37.830Z,19.03
2019-01-14T12:42:37.903Z,19.03
2019-01-14T12:43:37.896Z,19.04
2019-01-14T12:44:38.259Z,19.03
2019-01-14T12:45:37.998Z,19.04
2019-01-14T12:46:38.135Z,19.05
2019-01-14T12:47:39.878Z,19.05
2019-01-14T12:48:38.045Z,19.09
2019-01-14T12:49:37.965Z,19.09
2019-01-14T12:50:38.851Z,19.12
2019-01-14T12:51:37.760Z,19.1
2019-01-14T12:52:37.858Z,19.09
2019-01-14T12:53:38.052Z,19.09
2019-01-14T12:54:38.086Z,19.09
2019-01-14T12:55:37.856Z,19.09